Time;durP1;ratioP1;P1;durP2;ratioP2;P2;SDS_P1;SDS_P2;PMS_P1;PMS_P2;Temp;Humidity;BMP_temperature;BMP_pressure;BME280_temperature;BME280_humidity;BME280_pressure;Samples;Min_cycle;Max_cycle;Signal;HPM_P1;HPM_P2
2021/11/23 00:01:17;;;;;;;;;;;;;;;16.25;55.13;100663.47;5012456;28;20003;-38
2021/11/23 00:03:42;;;;;;;;;;;;;;;16.24;55.22;100667.09;5012665;28;20285;-37
2021/11/23 00:06:08;;;;;;;;;;;;;;;16.23;55.14;100662.72;5012920;28;20373;-38
2021/11/23 00:08:33;;;;;;;;;;;;;;;16.24;55.26;100667.09;5012976;28;20303;-37
2021/11/23 00:10:58;;;;;;;;;;;;;;;16.22;55.19;100667.22;5012744;28;19917;-38
2021/11/23 00:13:24;;;;;;;;;;;;;;;16.22;55.03;100652.97;5012560;28;19918;-38
2021/11/23 00:15:49;;;;;;;;;;;;;;;16.22;55.27;100653.81;5012868;28;19917;-38
2021/11/23 00:18:15;;;;;;;;;;;;;;;16.22;55.14;100656.50;5014089;28;19957;-38
2021/11/23 00:20:42;;;;;;;;;;;;;;;16.22;54.83;100650.28;5016906;28;19921;-37
2021/11/23 00:23:08;;;;;;;;;;;;;;;16.22;54.87;100648.44;5016637;28;19921;-38
2021/11/23 00:25:34;;;;;;;;;;;;;;;16.23;54.88;100649.31;5016731;28;19917;-38
2021/11/23 00:27:59;;;;;;;;;;;;;;;16.23;55.23;100652.00;5017128;28;19913;-37
2021/11/23 00:30:26;;;;;;;;;;;;;;;16.23;55.23;100660.03;5016633;28;19918;-38
2021/11/23 00:32:52;;;;;;;;;;;;;;;16.22;54.72;100648.44;5016320;28;19941;-37
2021/11/23 00:35:18;;;;;;;;;;;;;;;16.23;55.06;100654.66;5016594;28;20367;-38
2021/11/23 00:37:46;;;;;;;;;;;;;;;16.22;55.21;100655.63;5016444;28;19920;-37
2021/11/23 00:40:12;;;;;;;;;;;;;;;16.23;54.72;100660.88;5016434;28;19968;-37
2021/11/23 00:42:37;;;;;;;;;;;;;;;16.23;55.08;100660.88;5016333;28;20184;-38
2021/11/23 00:45:03;;;;;;;;;;;;;;;16.23;54.74;100670.75;5015273;28;20373;-38
2021/11/23 00:47:29;;;;;;;;;;;;;;;16.23;54.80;100670.75;5016243;28;19921;-38
2021/11/23 00:49:54;;;;;;;;;;;;;;;16.22;54.85;100666.38;5016243;28;19913;-37
2021/11/23 00:52:20;;;;;;;;;;;;;;;16.22;54.79;100659.19;5016108;28;20404;-37
2021/11/23 00:54:45;;;;;;;;;;;;;;;16.22;55.26;100655.63;5013183;28;19918;-38
2021/11/23 00:57:11;;;;;;;;;;;;;;;16.20;55.10;100662.91;4996638;28;19917;-38
2021/11/23 00:59:38;;;;;;;;;;;;;;;16.21;54.82;100664.63;5014107;28;19928;-38
2021/11/23 01:02:03;;;;;;;;;;;;;;;16.21;55.14;100668.16;5014451;28;19968;-38
2021/11/23 01:04:29;;;;;;;;;;;;;;;16.21;54.97;100665.47;5014352;28;20018;-38
2021/11/23 01:06:54;;;;;;;;;;;;;;;16.22;55.22;100674.41;5014130;28;19925;-37
2021/11/23 01:09:19;;;;;;;;;;;;;;;16.22;55.08;100669.06;5014942;28;19968;-38
2021/11/23 01:11:45;;;;;;;;;;;;;;;16.22;54.73;100669.06;5015564;28;19921;-38
2021/11/23 01:14:10;;;;;;;;;;;;;;;16.22;54.87;100663.69;5016228;28;19917;-38
2021/11/23 01:16:36;;;;;;;;;;;;;;;16.23;54.86;100676.97;5015818;28;20374;-38
2021/11/23 01:19:01;;;;;;;;;;;;;;;16.22;54.75;100664.53;5015984;28;19967;-38
2021/11/23 01:21:26;;;;;;;;;;;;;;;16.22;54.90;100669.91;4997907;28;19921;-38
2021/11/23 01:23:53;;;;;;;;;;;;;;;16.21;55.02;100667.31;5015476;28;19913;-37
2021/11/23 01:26:19;;;;;;;;;;;;;;;16.21;55.18;100667.31;5015171;28;19918;-38
2021/11/23 01:28:44;;;;;;;;;;;;;;;16.22;55.23;100669.06;5015509;28;19917;-37
2021/11/23 01:31:10;;;;;;;;;;;;;;;16.20;54.87;100666.44;5013872;28;20019;-38
2021/11/23 01:33:35;;;;;;;;;;;;;;;16.22;55.16;100674.41;5033842;28;19909;-39
2021/11/23 01:36:01;;;;;;;;;;;;;;;16.22;55.09;100661.88;5040202;28;19932;-39
2021/11/23 01:38:27;;;;;;;;;;;;;;;16.19;55.16;100656.69;5039714;28;19921;-39
2021/11/23 01:40:52;;;;;;;;;;;;;;;16.22;55.28;100658.31;5019632;28;19922;-37
2021/11/23 01:43:18;;;;;;;;;;;;;;;16.21;55.27;100651.22;5019388;28;19921;-37
2021/11/23 01:45:43;;;;;;;;;;;;;;;16.21;54.84;100651.22;5020035;28;19924;-37
2021/11/23 01:48:09;;;;;;;;;;;;;;;16.22;54.97;100648.44;5015542;28;19968;-37
2021/11/23 01:50:35;;;;;;;;;;;;;;;16.22;54.74;100653.81;5013992;28;19967;-38
2021/11/23 01:53:04;;;;;;;;;;;;;;;16.22;55.00;100661.00;5014792;28;19917;-38
2021/11/23 01:55:29;;;;;;;;;;;;;;;16.23;55.12;100655.53;5015096;28;19913;-38
2021/11/23 01:57:55;;;;;;;;;;;;;;;16.21;54.97;100654.75;5014855;28;19984;-38
2021/11/23 02:00:20;;;;;;;;;;;;;;;16.22;54.70;100650.28;5014653;28;19921;-38
2021/11/23 02:02:46;;;;;;;;;;;;;;;16.22;54.86;100650.28;5016246;28;20363;-38
2021/11/23 02:05:12;;;;;;;;;;;;;;;16.21;54.88;100656.56;5018281;28;19921;-39
2021/11/23 02:07:38;;;;;;;;;;;;;;;16.22;54.95;100647.59;5018016;28;19914;-38
2021/11/23 02:10:04;;;;;;;;;;;;;;;16.23;54.72;100657.34;5018051;28;20012;-38
2021/11/23 02:12:30;;;;;;;;;;;;;;;16.20;54.71;100650.34;5019390;28;19917;-38
2021/11/23 02:14:55;;;;;;;;;;;;;;;16.23;55.06;100660.03;5017953;28;19914;-38
2021/11/23 02:17:20;;;;;;;;;;;;;;;16.22;55.08;100659.19;5018130;28;19989;-38
2021/11/23 02:19:49;;;;;;;;;;;;;;;16.22;55.06;100652.97;5016797;28;20349;-38
2021/11/23 02:22:15;;;;;;;;;;;;;;;16.23;54.87;100654.66;5018073;28;19921;-38
2021/11/23 02:24:40;;;;;;;;;;;;;;;16.23;54.87;100652.00;5018012;28;19987;-38
2021/11/23 02:27:06;;;;;;;;;;;;;;;16.23;54.71;100657.34;5018871;28;20051;-38
2021/11/23 02:29:31;;;;;;;;;;;;;;;16.23;54.72;100660.88;5015315;28;20316;-38
2021/11/23 02:31:56;;;;;;;;;;;;;;;16.23;54.94;100654.66;5015216;28;19926;-38
2021/11/23 02:34:22;;;;;;;;;;;;;;;16.23;54.89;100654.66;5014715;28;19925;-38
2021/11/23 02:36:47;;;;;;;;;;;;;;;16.21;54.89;100654.75;5015443;28;19920;-38
2021/11/23 02:39:12;;;;;;;;;;;;;;;16.21;54.67;100656.56;4997083;28;19917;-38
2021/11/23 02:41:38;;;;;;;;;;;;;;;16.22;55.00;100652.97;5014752;28;19965;-37
2021/11/23 02:44:04;;;;;;;;;;;;;;;16.22;54.95;100658.31;4997772;28;20004;-38
2021/11/23 02:46:30;;;;;;;;;;;;;;;16.22;54.68;100661.88;5015074;28;19914;-37
2021/11/23 02:48:55;;;;;;;;;;;;;;;16.23;55.02;100663.56;5015314;28;19914;-38
2021/11/23 02:51:20;;;;;;;;;;;;;;;16.22;54.65;100669.06;5014850;28;20047;-38
2021/11/23 02:53:47;;;;;;;;;;;;;;;16.22;54.86;100675.28;5014237;28;19917;-38
2021/11/23 02:56:13;;;;;;;;;;;;;;;16.22;54.74;100679.78;5014275;28;19968;-38
2021/11/23 02:58:40;;;;;;;;;;;;;;;16.21;54.77;100673.53;5013969;28;19921;-38
2021/11/23 03:01:06;;;;;;;;;;;;;;;16.21;54.82;100669.97;5029574;22;19925;-41
2021/11/23 03:03:32;;;;;;;;;;;;;;;16.20;54.84;100670.94;5013100;28;20404;-41
2021/11/23 03:05:58;;;;;;;;;;;;;;;16.21;54.61;100670.84;5013491;28;19949;-44
2021/11/23 03:08:23;;;;;;;;;;;;;;;16.22;55.06;100666.38;5012292;28;20342;-42
2021/11/23 03:10:49;;;;;;;;;;;;;;;16.21;54.77;100664.63;5020766;28;19971;-41
2021/11/23 03:13:14;;;;;;;;;;;;;;;16.20;55.05;100671.81;5032511;28;19913;-42
2021/11/23 03:15:40;;;;;;;;;;;;;;;16.22;54.56;100664.53;5032819;28;19917;-44
2021/11/23 03:18:06;;;;;;;;;;;;;;;16.21;54.63;100665.47;5032787;28;20389;-41
2021/11/23 03:20:32;;;;;;;;;;;;;;;16.20;54.71;100660.22;5032185;28;19918;-41
2021/11/23 03:22:58;;;;;;;;;;;;;;;16.20;54.67;100654.88;5034266;28;19959;-42
2021/11/23 03:25:24;;;;;;;;;;;;;;;16.20;54.76;100655.72;5034005;28;19920;-47
2021/11/23 03:27:50;;;;;;;;;;;;;;;16.20;54.85;100649.50;5032583;28;20356;-40
2021/11/23 03:30:19;;;;;;;;;;;;;;;16.20;54.52;100646.81;5032240;28;19917;-42
2021/11/23 03:32:44;;;;;;;;;;;;;;;16.21;54.55;100649.38;5032512;28;20031;-42
2021/11/23 03:35:10;;;;;;;;;;;;;;;16.21;54.83;100637.81;5031852;28;19917;-42
2021/11/23 03:37:35;;;;;;;;;;;;;;;16.20;54.82;100641.44;5032364;28;20365;-43
2021/11/23 03:40:00;;;;;;;;;;;;;;;16.20;54.91;100641.44;5032259;28;19917;-43
2021/11/23 03:42:26;;;;;;;;;;;;;;;16.20;54.72;100641.44;5032056;28;20320;-43
2021/11/23 03:44:58;;;;;;;;;;;;;;;16.19;54.83;100637.91;5032267;28;19920;-40
2021/11/23 03:47:23;;;;;;;;;;;;;;;16.20;54.88;100638.78;5032285;28;19959;-42
2021/11/23 03:49:48;;;;;;;;;;;;;;;16.20;54.47;100633.41;5032005;28;20301;-43
2021/11/23 03:52:14;;;;;;;;;;;;;;;16.20;54.64;100634.25;5031663;28;19970;-41
2021/11/23 03:54:39;;;;;;;;;;;;;;;16.21;54.90;100640.47;5031757;28;19959;-43
2021/11/23 03:57:05;;;;;;;;;;;;;;;16.20;54.37;100630.72;5032814;28;20358;-44
2021/11/23 03:59:30;;;;;;;;;;;;;;;16.18;54.86;100633.53;5032207;28;19975;-43
2021/11/23 04:01:56;;;;;;;;;;;;;;;16.19;54.75;100635.22;5031832;28;19988;-42
2021/11/23 04:04:21;;;;;;;;;;;;;;;16.19;54.88;100627.19;5032212;28;19917;-42
2021/11/23 04:06:47;;;;;;;;;;;;;;;16.19;54.67;100635.22;5032866;28;20404;-42
2021/11/23 04:09:12;;;;;;;;;;;;;;;16.20;54.88;100639.63;5015251;28;19917;-41
2021/11/23 04:11:37;;;;;;;;;;;;;;;16.20;54.77;100638.78;5033349;28;19917;-44
2021/11/23 04:14:03;;;;;;;;;;;;;;;16.20;54.78;100638.78;5033519;28;19920;-43
2021/11/23 04:16:28;;;;;;;;;;;;;;;16.20;54.54;100642.31;5032210;28;19920;-45
2021/11/23 04:18:54;;;;;;;;;;;;;;;16.21;54.66;100645.84;5031794;28;19936;-43
2021/11/23 04:21:19;;;;;;;;;;;;;;;16.20;54.38;100644.13;5013990;28;19936;-43
2021/11/23 04:23:45;;;;;;;;;;;;;;;16.20;54.78;100649.50;5031952;28;19917;-42
2021/11/23 04:26:10;;;;;;;;;;;;;;;16.20;54.82;100649.50;5031281;28;20397;-41
2021/11/23 04:28:36;;;;;;;;;;;;;;;16.19;54.65;100664.72;5031867;28;19909;-42
2021/11/23 04:31:01;;;;;;;;;;;;;;;16.20;54.74;100660.22;5031488;28;19925;-43
2021/11/23 04:33:27;;;;;;;;;;;;;;;16.20;54.69;100654.88;5031774;28;19967;-43
2021/11/23 04:35:52;;;;;;;;;;;;;;;16.19;54.34;100654.00;5031433;28;20011;-42
2021/11/23 04:38:17;;;;;;;;;;;;;;;16.18;54.80;100651.41;5031832;28;20508;-45
2021/11/23 04:40:43;;;;;;;;;;;;;;;16.18;54.29;100651.41;5033497;28;20023;-46
2021/11/23 04:43:09;;;;;;;;;;;;;;;16.18;54.31;100641.56;5031885;28;19913;-42
2021/11/23 04:45:35;;;;;;;;;;;;;;;16.17;54.72;100633.59;5031429;28;19924;-44
2021/11/23 04:48:01;;;;;;;;;;;;;;;16.16;54.72;100619.34;5013881;28;20389;-42
2021/11/23 04:50:26;;;;;;;;;;;;;;;16.17;54.45;100629.09;5031343;28;19983;-43
2021/11/23 04:52:52;;;;;;;;;;;;;;;16.18;54.72;100619.22;5031770;28;19940;-45
2021/11/23 04:55:17;;;;;;;;;;;;;;;16.17;54.65;100620.19;5031259;28;19928;-44
2021/11/23 04:57:43;;;;;;;;;;;;;;;16.17;54.65;100617.50;5031463;28;20384;-43
2021/11/23 05:00:11;;;;;;;;;;;;;;;16.16;54.44;100613.13;5031215;28;20388;-42
2021/11/23 05:02:36;;;;;;;;;;;;;;;16.16;54.44;100616.66;5031577;28;20262;-42
2021/11/23 05:05:01;;;;;;;;;;;;;;;16.17;54.53;100630.91;5033901;28;19924;-44
2021/11/23 05:07:27;;;;;;;;;;;;;;;16.18;54.64;100632.63;5035249;28;20385;-44
2021/11/23 05:09:52;;;;;;;;;;;;;;;16.17;54.47;100633.59;5035020;28;20016;-42
2021/11/23 05:12:17;;;;;;;;;;;;;;;16.18;54.65;100636.19;5035110;28;19917;-42
2021/11/23 05:14:43;;;;;;;;;;;;;;;16.16;54.59;100638.09;5034882;28;19960;-43
2021/11/23 05:17:08;;;;;;;;;;;;;;;16.17;54.37;100644.31;5016835;28;19917;-44
2021/11/23 05:19:34;;;;;;;;;;;;;;;16.18;54.68;100635.31;5035009;28;19913;-44
2021/11/23 05:21:59;;;;;;;;;;;;;;;16.17;54.22;100634.47;5034809;28;19920;-44
2021/11/23 05:24:24;;;;;;;;;;;;;;;16.16;54.56;100630.06;5034664;28;19948;-43
2021/11/23 05:26:50;;;;;;;;;;;;;;;16.17;54.35;100637.13;5034811;28;20031;-42
2021/11/23 05:29:15;;;;;;;;;;;;;;;16.16;54.44;100632.75;5017208;28;19913;-44
2021/11/23 05:31:40;;;;;;;;;;;;;;;16.17;54.46;100641.66;5016722;28;19921;-42
2021/11/23 05:34:06;;;;;;;;;;;;;;;16.17;54.16;100645.19;5034609;28;19952;-40
2021/11/23 05:36:32;;;;;;;;;;;;;;;16.17;54.16;100649.69;5034166;28;19979;-42
2021/11/23 05:38:57;;;;;;;;;;;;;;;16.17;54.46;100644.31;5034724;28;19913;-40
2021/11/23 05:41:22;;;;;;;;;;;;;;;16.16;54.12;100645.28;5034283;28;19917;-43
2021/11/23 05:43:48;;;;;;;;;;;;;;;16.16;54.30;100645.28;5034670;28;19913;-40
2021/11/23 05:46:14;;;;;;;;;;;;;;;16.16;54.17;100643.47;5034122;28;19917;-41
2021/11/23 05:48:40;;;;;;;;;;;;;;;16.17;54.19;100649.69;5034524;28;19996;-41
2021/11/23 05:51:05;;;;;;;;;;;;;;;16.15;54.10;100648.94;5034178;28;20008;-43
2021/11/23 05:53:31;;;;;;;;;;;;;;;16.16;54.57;100650.66;5034315;28;20385;-42
2021/11/23 05:55:57;;;;;;;;;;;;;;;16.16;54.47;100651.50;5034454;28;19923;-45
2021/11/23 05:58:22;;;;;;;;;;;;;;;16.16;54.27;100650.66;5035846;28;20353;-44
2021/11/23 06:00:47;;;;;;;;;;;;;;;16.16;54.03;100664.06;5033981;28;19928;-43
2021/11/23 06:03:13;;;;;;;;;;;;;;;16.15;54.07;100665.03;5034024;28;19913;-44
2021/11/23 06:05:38;;;;;;;;;;;;;;;16.16;53.99;100670.28;5033974;28;19917;-41
2021/11/23 06:08:03;;;;;;;;;;;;;;;16.16;54.50;100674.78;5034104;28;19968;-42
2021/11/23 06:10:29;;;;;;;;;;;;;;;16.15;54.10;100673.94;5033884;28;19928;-42
2021/11/23 06:12:54;;;;;;;;;;;;;;;16.15;53.90;100673.94;5033945;28;19913;-43
2021/11/23 06:15:21;;;;;;;;;;;;;;;16.14;54.10;100677.59;5033376;28;20042;-46
2021/11/23 06:17:47;;;;;;;;;;;;;;;16.15;54.04;100676.63;5033016;28;19917;-41
2021/11/23 06:20:13;;;;;;;;;;;;;;;16.16;54.03;100674.78;5033711;28;20337;-43
2021/11/23 06:22:38;;;;;;;;;;;;;;;16.15;53.79;100675.75;5033664;28;19975;-45
2021/11/23 06:25:07;;;;;;;;;;;;;;;16.15;54.27;100678.44;5033700;28;19943;-43
2021/11/23 06:27:34;;;;;;;;;;;;;;;16.15;53.92;100678.44;5015777;28;20328;-46
2021/11/23 06:30:00;;;;;;;;;;;;;;;16.15;54.32;100683.81;5033638;28;20301;-45
2021/11/23 06:32:26;;;;;;;;;;;;;;;16.15;53.98;100679.31;5015307;28;20488;-45
2021/11/23 06:34:51;;;;;;;;;;;;;;;16.15;54.39;100683.81;5033058;28;19925;-44
2021/11/23 06:37:16;;;;;;;;;;;;;;;16.14;54.35;100685.63;5033586;28;19974;-43
2021/11/23 06:39:42;;;;;;;;;;;;;;;16.14;54.22;100682.06;5033720;28;20329;-42
2021/11/23 06:42:07;;;;;;;;;;;;;;;16.14;53.95;100679.38;5026765;28;19940;-42
2021/11/23 06:44:32;;;;;;;;;;;;;;;16.15;53.99;100686.50;4996094;28;19927;-43
2021/11/23 06:46:58;;;;;;;;;;;;;;;16.13;54.24;100686.56;5023061;28;19952;-42
2021/11/23 06:49:23;;;;;;;;;;;;;;;16.14;53.94;100687.44;5033294;28;19956;-41
2021/11/23 06:51:48;;;;;;;;;;;;;;;16.13;53.94;100691.94;5015371;28;19917;-42
2021/11/23 06:54:14;;;;;;;;;;;;;;;16.14;54.44;100693.69;5032551;28;19924;-39
2021/11/23 06:56:39;;;;;;;;;;;;;;;16.14;54.28;100699.03;5033169;28;19987;-40
2021/11/23 06:59:04;;;;;;;;;;;;;;;16.14;53.98;100704.41;5033034;28;19913;-43
2021/11/23 07:01:30;;;;;;;;;;;;;;;16.14;54.24;100692.78;5032756;28;20412;-39
2021/11/23 07:03:56;;;;;;;;;;;;;;;16.13;54.11;100691.06;5032966;28;19913;-41
2021/11/23 07:06:21;;;;;;;;;;;;;;;16.13;53.98;100688.41;5032827;28;19924;-43
2021/11/23 07:08:47;;;;;;;;;;;;;;;16.14;54.38;100700.84;5045149;28;19944;-41
2021/11/23 07:11:13;;;;;;;;;;;;;;;16.14;54.00;100708.88;5032629;28;19928;-41
2021/11/23 07:13:39;;;;;;;;;;;;;;;16.14;54.22;100714.25;5033699;28;20012;-41
2021/11/23 07:16:04;;;;;;;;;;;;;;;16.14;54.36;100722.28;5034583;28;19959;-42
2021/11/23 07:18:30;;;;;;;;;;;;;;;16.13;54.07;100733.97;5014098;28;19921;-42
2021/11/23 07:20:55;;;;;;;;;;;;;;;16.13;54.21;100740.19;5032633;28;20008;-43
2021/11/23 07:23:22;;;;;;;;;;;;;;;16.14;54.21;100741.06;5032169;28;19944;-43
2021/11/23 07:25:47;;;;;;;;;;;;;;;16.15;54.34;100742.81;5045910;28;19917;-43
2021/11/23 07:28:13;;;;;;;;;;;;;;;16.14;54.19;100741.06;5051628;28;19924;-44
2021/11/23 07:30:38;;;;;;;;;;;;;;;16.14;53.95;100746.41;5052269;28;19917;-44
2021/11/23 07:33:04;;;;;;;;;;;;;;;16.13;54.34;100750.94;5052255;28;19916;-42
2021/11/23 07:35:29;;;;;;;;;;;;;;;16.13;54.33;100758.97;5032086;28;19913;-41
2021/11/23 07:37:55;;;;;;;;;;;;;;;16.15;54.46;100769.63;5032001;28;20529;-41
2021/11/23 07:40:20;;;;;;;;;;;;;;;16.14;54.26;100773.25;5014575;28;20008;-43
2021/11/23 07:42:45;;;;;;;;;;;;;;;16.14;53.98;100767.88;5032306;28;19913;-41
2021/11/23 07:45:11;;;;;;;;;;;;;;;16.14;54.00;100767.88;5031972;28;19917;-42
2021/11/23 07:47:36;;;;;;;;;;;;;;;16.16;54.34;100774.03;5032890;28;20004;-41
2021/11/23 07:50:03;;;;;;;;;;;;;;;16.16;54.18;100768.66;5032204;28;19959;-41
2021/11/23 07:52:28;;;;;;;;;;;;;;;16.14;54.42;100773.25;5031795;28;20015;-41
2021/11/23 07:54:53;;;;;;;;;;;;;;;16.14;54.35;100768.75;5031483;28;20416;-41
2021/11/23 07:57:19;;;;;;;;;;;;;;;16.13;54.45;100767.03;5028743;28;19917;-43
2021/11/23 07:59:45;;;;;;;;;;;;;;;16.15;54.18;100764.25;5027254;28;19913;-43
2021/11/23 08:02:10;;;;;;;;;;;;;;;16.15;54.24;100773.16;5031354;28;19913;-42
2021/11/23 08:04:35;;;;;;;;;;;;;;;16.16;54.30;100771.34;5013034;28;19913;-43
2021/11/23 08:07:01;;;;;;;;;;;;;;;16.16;54.52;100777.56;5030835;28;19955;-42
2021/11/23 08:09:26;;;;;;;;;;;;;;;16.16;54.17;100768.66;5030623;28;19925;-42
2021/11/23 08:11:51;;;;;;;;;;;;;;;16.16;54.25;100763.28;5030492;28;19964;-42
2021/11/23 08:14:17;;;;;;;;;;;;;;;16.17;54.24;100778.41;5031296;28;19967;-42
2021/11/23 08:16:42;;;;;;;;;;;;;;;16.15;54.12;100781.22;4999142;28;19917;-44
2021/11/23 08:19:08;;;;;;;;;;;;;;;16.17;54.04;100778.41;4997316;28;20469;-41
2021/11/23 08:21:33;;;;;;;;;;;;;;;16.16;54.09;100790.97;5031004;28;19924;-42
2021/11/23 08:23:59;;;;;;;;;;;;;;;16.17;54.19;100789.16;5027909;28;19921;-42
2021/11/23 08:26:25;;;;;;;;;;;;;;;16.17;54.02;100795.38;5029147;28;19975;-44
2021/11/23 08:28:51;;;;;;;;;;;;;;;16.16;54.39;100782.06;5015536;28;19913;-41
2021/11/23 08:31:16;;;;;;;;;;;;;;;16.17;54.08;100787.31;5026853;28;20319;-39
2021/11/23 08:33:42;;;;;;;;;;;;;;;16.17;54.20;100797.19;5032898;28;19913;-40
2021/11/23 08:36:08;;;;;;;;;;;;;;;16.17;54.02;100790.00;5013745;28;19917;-39
2021/11/23 08:38:35;;;;;;;;;;;;;;;16.16;54.08;100793.66;5031856;28;19917;-42
2021/11/23 08:41:01;;;;;;;;;;;;;;;16.18;53.92;100804.28;5046778;28;19913;-41
2021/11/23 08:43:26;;;;;;;;;;;;;;;16.17;54.18;100805.25;5035347;28;20366;-42
2021/11/23 08:45:52;;;;;;;;;;;;;;;16.17;54.26;100802.56;5035834;28;20257;-43
2021/11/23 08:48:17;;;;;;;;;;;;;;;16.17;54.22;100802.56;5035282;28;21054;-41
2021/11/23 08:50:42;;;;;;;;;;;;;;;16.16;54.06;100799.00;5039135;28;19917;-45
2021/11/23 08:53:08;;;;;;;;;;;;;;;16.17;53.96;100789.16;5035184;28;19952;-43
2021/11/23 08:55:36;;;;;;;;;;;;;;;16.16;54.13;100787.44;5035112;28;19956;-42
2021/11/23 08:58:01;;;;;;;;;;;;;;;16.15;54.37;100791.94;5051370;28;19916;-42
2021/11/23 09:00:26;;;;;;;;;;;;;;;16.15;53.86;100780.34;5047142;28;19921;-41
2021/11/23 09:02:56;;;;;;;;;;;;;;;16.15;54.26;100791.94;5032658;28;19917;-43
2021/11/23 09:05:22;;;;;;;;;;;;;;;16.16;53.66;100787.44;5017159;28;20051;-44
2021/11/23 09:07:47;;;;;;;;;;;;;;;16.15;54.08;100780.34;5034909;28;19913;-43
2021/11/23 09:10:18;;;;;;;;;;;;;;;16.15;54.26;100775.00;5034988;28;19921;-43
2021/11/23 09:12:44;;;;;;;;;;;;;;;16.14;53.89;100767.88;5034990;28;20377;-43
2021/11/23 09:15:09;;;;;;;;;;;;;;;16.16;54.06;100776.69;5016992;28;20055;-42
2021/11/23 09:17:35;;;;;;;;;;;;;;;16.15;53.87;100775.00;5034587;28;19960;-43
2021/11/23 09:20:00;;;;;;;;;;;;;;;16.15;54.15;100785.72;5034739;28;19917;-45
2021/11/23 09:22:26;;;;;;;;;;;;;;;16.16;54.19;100785.59;5030121;28;19936;-41
2021/11/23 09:24:51;;;;;;;;;;;;;;;16.17;53.72;100789.16;5034507;28;20019;-43
2021/11/23 09:27:16;;;;;;;;;;;;;;;16.16;53.83;100784.75;5019677;28;19917;-41
2021/11/23 09:29:42;;;;;;;;;;;;;;;16.14;54.21;100781.28;5029393;28;19920;-40
2021/11/23 09:32:07;;;;;;;;;;;;;;;16.16;53.85;100787.44;5034545;28;19925;-38
2021/11/23 09:34:33;;;;;;;;;;;;;;;16.14;54.24;100790.22;5034100;28;19913;-40
2021/11/23 09:36:58;;;;;;;;;;;;;;;16.16;53.86;100787.44;5034342;28;19913;-38
2021/11/23 09:39:24;;;;;;;;;;;;;;;16.16;53.91;100790.13;5034721;28;20004;-38
2021/11/23 09:41:49;;;;;;;;;;;;;;;16.16;53.83;100787.44;5033916;28;20342;-41
2021/11/23 09:44:15;;;;;;;;;;;;;;;16.16;54.07;100787.44;5034208;28;19913;-40
2021/11/23 09:46:40;;;;;;;;;;;;;;;16.15;53.78;100794.63;5034297;28;19922;-44
2021/11/23 09:49:07;;;;;;;;;;;;;;;16.16;54.00;100792.78;5035555;28;19920;-47
2021/11/23 09:51:33;;;;;;;;;;;;;;;16.17;53.73;100797.19;5032890;28;19921;-42
2021/11/23 09:54:00;;;;;;;;;;;;;;;16.17;54.09;100794.50;5039814;28;19913;-41
2021/11/23 09:56:25;;;;;;;;;;;;;;;16.17;53.68;100791.81;5053923;28;19917;-42
2021/11/23 09:58:57;;;;;;;;;;;;;;;16.17;53.93;100790.00;5053965;28;19928;-42
2021/11/23 10:01:27;;;;;;;;;;;;;;;16.17;54.03;100783.78;5048534;28;19925;-41
2021/11/23 10:03:53;;;;;;;;;;;;;;;16.17;53.77;100792.69;5015616;28;20020;-44
2021/11/23 10:06:20;;;;;;;;;;;;;;;16.17;53.90;100791.81;5033869;28;19920;-42
2021/11/23 10:08:46;;;;;;;;;;;;;;;16.17;53.92;100790.00;5034208;28;20012;-42
2021/11/23 10:11:19;;;;;;;;;;;;;;;16.17;53.70;100795.38;5033335;28;19932;-41
2021/11/23 10:13:46;;;;;;;;;;;;;;;16.16;54.03;100788.28;5033744;28;19914;-41
2021/11/23 10:16:11;;;;;;;;;;;;;;;16.16;53.63;100792.78;5015695;28;19917;-41
2021/11/23 10:18:37;;;;;;;;;;;;;;;16.16;54.05;100792.78;5018306;28;19920;-42
2021/11/23 10:21:04;;;;;;;;;;;;;;;16.17;53.95;100789.16;5029519;28;20266;-41
2021/11/23 10:23:37;;;;;;;;;;;;;;;16.17;53.90;100789.16;5029700;28;19920;-43
2021/11/23 10:26:14;;;;;;;;;;;;;;;16.17;54.00;100784.63;5032266;28;19979;-42
2021/11/23 10:28:47;;;;;;;;;;;;;;;16.18;53.64;100782.81;5017330;28;19917;-43
2021/11/23 10:31:13;;;;;;;;;;;;;;;16.17;53.89;100773.91;5029814;28;20340;-42
2021/11/23 10:33:39;;;;;;;;;;;;;;;16.16;53.58;100777.56;5033406;28;20421;-43
2021/11/23 10:36:06;;;;;;;;;;;;;;;16.17;53.98;100779.28;5033176;28;20524;-42
2021/11/23 10:38:32;;;;;;;;;;;;;;;16.19;53.75;100780.06;5025725;28;19925;-46
2021/11/23 10:40:58;;;;;;;;;;;;;;;16.17;53.64;100773.91;5032678;28;19914;-43
2021/11/23 10:43:23;;;;;;;;;;;;;;;16.18;53.76;100769.41;5032403;28;19936;-43
2021/11/23 10:45:51;;;;;;;;;;;;;;;16.18;53.84;100751.53;5015424;28;19917;-44
2021/11/23 10:48:18;;;;;;;;;;;;;;;16.20;53.71;100754.09;5026082;28;19943;-43
2021/11/23 10:50:55;;;;;;;;;;;;;;;16.18;53.58;100742.59;5015198;28;20456;-42
2021/11/23 10:53:22;;;;;;;;;;;;;;;16.19;53.73;100733.59;5032964;28;19943;-42
2021/11/23 10:55:47;;;;;;;;;;;;;;;16.19;53.89;100734.47;5032739;28;19927;-41
2021/11/23 10:58:13;;;;;;;;;;;;;;;16.19;53.75;100725.56;5009874;28;19913;-44
2021/11/23 11:00:41;;;;;;;;;;;;;;;16.20;54.01;100735.31;5030460;28;19921;-43
2021/11/23 11:03:07;;;;;;;;;;;;;;;16.20;53.75;100724.59;5033528;28;19916;-46
2021/11/23 11:05:35;;;;;;;;;;;;;;;16.20;53.94;100724.59;5034131;28;19923;-45
2021/11/23 11:08:01;;;;;;;;;;;;;;;16.20;53.80;100719.22;5008580;28;20345;-40
2021/11/23 11:10:28;;;;;;;;;;;;;;;16.20;53.88;100721.91;5030438;28;20007;-42
2021/11/23 11:12:53;;;;;;;;;;;;;;;16.21;53.86;100718.25;5032918;28;19913;-40
2021/11/23 11:15:21;;;;;;;;;;;;;;;16.21;53.52;100715.56;5025542;28;20062;-41
2021/11/23 11:17:47;;;;;;;;;;;;;;;16.21;53.67;100716.44;5018487;28;19995;-41
2021/11/23 11:20:30;;;;;;;;;;;;;;;16.22;53.42;100714.66;5024668;28;20004;-41
2021/11/23 11:23:02;;;;;;;;;;;;;;;16.36;54.11;100708.38;5028740;28;19957;-38
2021/11/23 11:25:47;;;;;;;;;;;;;;;16.51;53.46;100718.13;5029860;28;19940;-38
2021/11/23 11:28:13;;;;;;;;;;;;;;;16.66;52.94;100716.25;5014248;28;19928;-36
2021/11/23 11:30:47;;;;;;;;;;;;;;;16.70;53.10;100707.03;5025686;28;19921;-35
2021/11/23 11:33:14;;;;;;;;;;;;;;;16.75;53.08;100704.94;5031270;28;19920;-35
2021/11/23 11:35:47;;;;;;;;;;;;;;;16.84;52.44;100700.81;5013354;28;19980;-37
2021/11/23 11:38:25;;;;;;;;;;;;;;;16.92;52.20;100695.78;5010311;28;20262;-38
2021/11/23 11:40:50;;;;;;;;;;;;;;;16.94;52.66;100705.47;5030816;28;19963;-38
2021/11/23 11:43:15;;;;;;;;;;;;;;;16.91;52.74;100715.56;5028875;28;19913;-38
2021/11/23 11:45:52;;;;;;;;;;;;;;;16.84;51.43;100712.41;5029045;28;19921;-38
2021/11/23 11:48:23;;;;;;;;;;;;;;;16.43;51.71;100717.75;4993250;28;20011;-38
2021/11/23 11:51:02;;;;;;;;;;;;;;;16.29;52.08;100721.31;5013898;28;19918;-38
2021/11/23 11:53:32;;;;;;;;;;;;;;;16.26;51.88;100719.72;5021409;28;20003;-38
2021/11/23 11:55:57;;;;;;;;;;;;;;;16.18;52.14;100726.50;5031942;28;19920;-38
2021/11/23 11:58:44;;;;;;;;;;;;;;;16.09;52.01;100726.13;5013980;28;20377;-38
2021/11/23 12:01:23;;;;;;;;;;;;;;;16.02;52.51;100719.41;5028581;28;19970;-38
2021/11/23 12:04:09;;;;;;;;;;;;;;;15.80;52.52;100713.69;5031529;28;19936;-37
2021/11/23 12:06:53;;;;;;;;;;;;;;;15.73;52.94;100715.03;5026259;28;19924;-38
2021/11/23 12:09:29;;;;;;;;;;;;;;;15.70;53.01;100705.34;5024333;28;20369;-36
2021/11/23 12:11:58;;;;;;;;;;;;;;;15.55;53.31;100703.56;5028431;28;19918;-38
2021/11/23 12:14:26;;;;;;;;;;;;;;;15.66;53.16;100697.59;5031099;28;19913;-39
2021/11/23 12:16:57;;;;;;;;;;;;;;;15.69;53.77;100694.72;5024276;28;19913;-39
2021/11/23 12:19:49;;;;;;;;;;;;;;;15.66;53.39;100690.41;5023625;28;19917;-38
2021/11/23 12:22:26;;;;;;;;;;;;;;;15.53;54.03;100682.25;5008880;28;19913;-38
2021/11/23 12:24:52;;;;;;;;;;;;;;;15.60;53.87;100677.34;5031130;28;19913;-37
2021/11/23 12:27:18;;;;;;;;;;;;;;;15.57;54.02;100673.06;5019126;28;19959;-40
2021/11/23 12:29:45;;;;;;;;;;;;;;;15.56;53.88;100671.31;5026021;28;19913;-36
2021/11/23 12:32:11;;;;;;;;;;;;;;;15.40;54.59;100662.50;5031441;28;19917;-36